Accueil
METAR-TAF:

METAR-TAF

Aéroports :

La Chaux-de-Fonds, Suisse

Aéroport régional Les Éplatures

latitude: 47-05-03N, longitude: 006-47-37E, altitude: 1027 m

Observation

Le bulletin a été fait il y a 32 minutes, à 09:20 UTC
Vent 6 kt de ouest, variant entre sud/sud-ouest et ouest/nord-ouest
Température 19°C
Humidité 78%
Pression 1024 hPa
Visibilité 10 km ou plus
Nuages fragmentés à une hauteur de 2000 ft

METAR: LSGC 170920Z 27006KT 210V300 9999 BKN020 19/15 Q1024

Heure: 11:52 (09:52 UTC)

Prévision

Le bulletin a été fait il y a 1 heure et 27 minutes, à 08:25 UTC
Prévision valable du 17 à 09 UTC au 17 à 18 UTC
Vent 5 kt de ouest/sud-ouest
Visibilité 10 km ou plus
Quelques nuages à une hauteur de 1500 ft
Nuages épars à une hauteur de 4000 ft

TAF: LSGC 170825Z 1709/1718 24005KT 9999 FEW015 SCT040

Observations et prévisions météorologiques de plus de 4000 aéroports (messages METAR et TAF).

Les stations disponibles sont représentées par des disques jaunes et rouges sur la carte.

Passer la souris dessus pour voir le nom de la station.

Cliquer dessus pour voir les observations et prévisions météorologiques.

Pour changer de carte: cliquez sur les boutons verts avec une croix noire pour zoomer, sur le bouton vert avec un tiret pour effectuer un zoom arrière, ou sur les flèches vertes pour les cartes adjacentes.


METAR-TAF: